sensor_id;sensor_type;location;lat;lon;timestamp;pressure;altitude;pressure_sealevel;temperature;humidity
38033;BME280;23841;48.524;1.342;2023-11-18T00:00:08;100011.63;;;12.93;65.02
38033;BME280;23841;48.524;1.342;2023-11-18T00:02:38;100002.72;;;12.93;64.84
38033;BME280;23841;48.524;1.342;2023-11-18T00:05:04;99998.28;;;12.93;65.01
38033;BME280;23841;48.524;1.342;2023-11-18T00:07:29;100001.81;;;12.94;65.03
38033;BME280;23841;48.524;1.342;2023-11-18T00:09:57;100000.94;;;12.93;64.92
38033;BME280;23841;48.524;1.342;2023-11-18T00:12:22;99997.38;;;12.94;65.03
38033;BME280;23841;48.524;1.342;2023-11-18T00:14:49;99996.47;;;12.94;65.00
38033;BME280;23841;48.524;1.342;2023-11-18T00:17:15;99990.28;;;12.93;64.79
38033;BME280;23841;48.524;1.342;2023-11-18T00:19:41;99987.63;;;12.93;64.99
38033;BME280;23841;48.524;1.342;2023-11-18T00:22:08;99971.66;;;12.92;64.86
38033;BME280;23841;48.524;1.342;2023-11-18T00:24:33;99961.84;;;12.92;64.91
38033;BME280;23841;48.524;1.342;2023-11-18T00:27:00;99963.66;;;12.92;64.98
38033;BME280;23841;48.524;1.342;2023-11-18T00:29:32;99956.53;;;12.92;64.95
38033;BME280;23841;48.524;1.342;2023-11-18T00:31:57;99942.28;;;12.93;64.86
38033;BME280;23841;48.524;1.342;2023-11-18T00:34:23;99930.75;;;12.91;64.80
38033;BME280;23841;48.524;1.342;2023-11-18T00:36:48;99933.41;;;12.91;64.73
38033;BME280;23841;48.524;1.342;2023-11-18T00:39:14;99923.66;;;12.92;64.86
38033;BME280;23841;48.524;1.342;2023-11-18T00:41:41;99924.56;;;12.91;64.89
38033;BME280;23841;48.524;1.342;2023-11-18T00:44:06;99921.88;;;12.91;64.83
38033;BME280;23841;48.524;1.342;2023-11-18T00:46:32;99924.50;;;12.92;65.00
38033;BME280;23841;48.524;1.342;2023-11-18T00:49:01;99921.84;;;12.92;64.80
38033;BME280;23841;48.524;1.342;2023-11-18T00:51:27;99921.84;;;12.92;64.80
38033;BME280;23841;48.524;1.342;2023-11-18T00:53:53;99934.31;;;12.92;64.94
38033;BME280;23841;48.524;1.342;2023-11-18T00:56:20;99948.53;;;12.92;64.82
38033;BME280;23841;48.524;1.342;2023-11-18T00:58:49;99951.22;;;12.91;64.78
38033;BME280;23841;48.524;1.342;2023-11-18T01:01:14;99959.22;;;12.91;64.84
38033;BME280;23841;48.524;1.342;2023-11-18T01:03:46;99949.41;;;12.91;64.82
38033;BME280;23841;48.524;1.342;2023-11-18T01:06:15;99954.75;;;12.91;64.75
38033;BME280;23841;48.524;1.342;2023-11-18T01:08:44;99954.75;;;12.91;64.81
38033;BME280;23841;48.524;1.342;2023-11-18T01:11:10;99940.56;;;12.91;64.81
38033;BME280;23841;48.524;1.342;2023-11-18T01:13:35;99940.59;;;12.89;64.78
38033;BME280;23841;48.524;1.342;2023-11-18T01:16:01;99938.78;;;12.90;64.83
38033;BME280;23841;48.524;1.342;2023-11-18T01:18:27;99933.50;;;12.88;64.79
38033;BME280;23841;48.524;1.342;2023-11-18T01:20:53;99933.53;;;12.87;64.80
38033;BME280;23841;48.524;1.342;2023-11-18T01:23:18;99922.88;;;12.87;64.76
38033;BME280;23841;48.524;1.342;2023-11-18T01:25:44;99923.72;;;12.87;64.70
38033;BME280;23841;48.524;1.342;2023-11-18T01:28:09;99919.28;;;12.88;64.73
38033;BME280;23841;48.524;1.342;2023-11-18T01:30:35;99906.91;;;12.85;64.72
38033;BME280;23841;48.524;1.342;2023-11-18T01:33:01;99902.44;;;12.86;64.74
38033;BME280;23841;48.524;1.342;2023-11-18T01:35:27;99903.34;;;12.86;64.76
38033;BME280;23841;48.524;1.342;2023-11-18T01:37:53;99915.72;;;12.87;64.60
38033;BME280;23841;48.524;1.342;2023-11-18T01:40:20;99919.34;;;12.86;64.74
38033;BME280;23841;48.524;1.342;2023-11-18T01:42:46;99926.41;;;12.87;64.73
38033;BME280;23841;48.524;1.342;2023-11-18T01:45:14;99930.81;;;12.88;64.71
38033;BME280;23841;48.524;1.342;2023-11-18T01:47:41;99925.50;;;12.88;64.72
38033;BME280;23841;48.524;1.342;2023-11-18T01:50:09;99921.06;;;12.87;64.81
38033;BME280;23841;48.524;1.342;2023-11-18T01:52:36;99918.41;;;12.87;64.79
38033;BME280;23841;48.524;1.342;2023-11-18T01:55:02;99930.00;;;12.86;64.82
38033;BME280;23841;48.524;1.342;2023-11-18T01:57:34;99921.09;;;12.86;64.78
38033;BME280;23841;48.524;1.342;2023-11-18T02:00:00;99924.66;;;12.86;64.87
38033;BME280;23841;48.524;1.342;2023-11-18T02:02:30;99918.44;;;12.86;64.61
38033;BME280;23841;48.524;1.342;2023-11-18T02:04:56;99917.56;;;12.85;65.00
38033;BME280;23841;48.524;1.342;2023-11-18T02:07:21;99915.72;;;12.87;64.83
38033;BME280;23841;48.524;1.342;2023-11-18T02:09:47;99930.00;;;12.86;64.84
38033;BME280;23841;48.524;1.342;2023-11-18T02:14:50;99936.19;;;12.87;64.84
38033;BME280;23841;48.524;1.342;2023-11-18T02:17:18;99920.22;;;12.85;64.65
38033;BME280;23841;48.524;1.342;2023-11-18T02:19:45;99918.44;;;12.86;64.74
38033;BME280;23841;48.524;1.342;2023-11-18T02:22:11;99914.00;;;12.86;64.85
38033;BME280;23841;48.524;1.342;2023-11-18T02:24:37;99917.56;;;12.85;64.86
38033;BME280;23841;48.524;1.342;2023-11-18T02:27:04;99911.38;;;12.85;64.99
38033;BME280;23841;48.524;1.342;2023-11-18T02:29:37;99921.13;;;12.84;64.80
38033;BME280;23841;48.524;1.342;2023-11-18T02:32:25;99923.75;;;12.86;64.89
38033;BME280;23841;48.524;1.342;2023-11-18T02:37:27;99923.81;;;12.84;64.86
38033;BME280;23841;48.524;1.342;2023-11-18T02:40:03;99918.47;;;12.84;64.83
38033;BME280;23841;48.524;1.342;2023-11-18T02:42:36;99908.69;;;12.85;64.82
38033;BME280;23841;48.524;1.342;2023-11-18T02:45:04;99895.38;;;12.83;64.89
38033;BME280;23841;48.524;1.342;2023-11-18T02:47:32;99893.59;;;12.84;64.93
38033;BME280;23841;48.524;1.342;2023-11-18T02:49:57;99874.94;;;12.84;64.75
38033;BME280;23841;48.524;1.342;2023-11-18T02:52:33;99874.03;;;12.83;64.98
38033;BME280;23841;48.524;1.342;2023-11-18T02:54:59;99867.81;;;12.84;64.81
38033;BME280;23841;48.524;1.342;2023-11-18T02:57:25;99862.47;;;12.84;64.81
38033;BME280;23841;48.524;1.342;2023-11-18T02:59:50;99850.94;;;12.84;64.80
38033;BME280;23841;48.524;1.342;2023-11-18T03:02:15;99856.28;;;12.84;64.89
38033;BME280;23841;48.524;1.342;2023-11-18T03:04:41;99855.38;;;12.83;64.85
38033;BME280;23841;48.524;1.342;2023-11-18T03:07:10;99839.38;;;12.83;64.90
38033;BME280;23841;48.524;1.342;2023-11-18T03:09:35;99844.72;;;12.83;64.87
38033;BME280;23841;48.524;1.342;2023-11-18T03:12:03;99840.31;;;12.82;64.74
38033;BME280;23841;48.524;1.342;2023-11-18T03:14:29;99819.88;;;12.81;64.96
38033;BME280;23841;48.524;1.342;2023-11-18T03:16:54;99825.22;;;12.81;64.97
38033;BME280;23841;48.524;1.342;2023-11-18T03:19:21;99821.69;;;12.80;64.91
38033;BME280;23841;48.524;1.342;2023-11-18T03:21:51;99806.59;;;12.79;64.95
38033;BME280;23841;48.524;1.342;2023-11-18T03:24:18;99810.13;;;12.80;64.82
38033;BME280;23841;48.524;1.342;2023-11-18T03:26:44;99810.22;;;12.77;64.80
38033;BME280;23841;48.524;1.342;2023-11-18T03:29:09;99807.50;;;12.78;64.97
38033;BME280;23841;48.524;1.342;2023-11-18T03:31:36;99787.97;;;12.78;64.90
38033;BME280;23841;48.524;1.342;2023-11-18T03:34:02;99781.78;;;12.76;64.98
38033;BME280;23841;48.524;1.342;2023-11-18T03:36:27;99771.09;;;12.77;64.99
38033;BME280;23841;48.524;1.342;2023-11-18T03:38:53;99767.56;;;12.77;64.87
38033;BME280;23841;48.524;1.342;2023-11-18T03:41:18;99762.22;;;12.77;64.81
38033;BME280;23841;48.524;1.342;2023-11-18T03:43:44;99754.25;;;12.75;64.96
38033;BME280;23841;48.524;1.342;2023-11-18T03:46:10;99752.47;;;12.76;64.96
38033;BME280;23841;48.524;1.342;2023-11-18T03:48:36;99756.88;;;12.77;64.73
38033;BME280;23841;48.524;1.342;2023-11-18T03:51:02;99759.56;;;12.77;64.89
38033;BME280;23841;48.524;1.342;2023-11-18T03:53:28;99753.34;;;12.76;64.91
38033;BME280;23841;48.524;1.342;2023-11-18T03:55:54;99741.81;;;12.76;65.00
38033;BME280;23841;48.524;1.342;2023-11-18T03:58:19;99739.13;;;12.76;64.98
38033;BME280;23841;48.524;1.342;2023-11-18T04:00:45;99735.59;;;12.75;64.94
38033;BME280;23841;48.524;1.342;2023-11-18T04:03:10;99732.06;;;12.75;64.87
38033;BME280;23841;48.524;1.342;2023-11-18T04:05:35;99725.81;;;12.76;64.77
38033;BME280;23841;48.524;1.342;2023-11-18T04:08:04;99730.28;;;12.75;64.96
38033;BME280;23841;48.524;1.342;2023-11-18T04:10:29;99723.13;;;12.76;64.87
38033;BME280;23841;48.524;1.342;2023-11-18T04:12:55;99716.03;;;12.76;64.74
38033;BME280;23841;48.524;1.342;2023-11-18T04:15:20;99721.38;;;12.76;64.66
38033;BME280;23841;48.524;1.342;2023-11-18T04:17:46;99714.28;;;12.75;64.79
38033;BME280;23841;48.524;1.342;2023-11-18T04:20:12;99726.75;;;12.75;64.82
38033;BME280;23841;48.524;1.342;2023-11-18T04:22:39;99725.81;;;12.76;64.68
38033;BME280;23841;48.524;1.342;2023-11-18T04:25:05;99728.47;;;12.76;64.73
38033;BME280;23841;48.524;1.342;2023-11-18T04:27:31;99725.81;;;12.76;64.83
38033;BME280;23841;48.524;1.342;2023-11-18T04:29:57;99716.09;;;12.73;64.70
38033;BME280;23841;48.524;1.342;2023-11-18T04:32:23;99704.56;;;12.73;64.77
38033;BME280;23841;48.524;1.342;2023-11-18T04:34:48;99704.56;;;12.73;64.83
38033;BME280;23841;48.524;1.342;2023-11-18T04:37:16;99696.56;;;12.73;64.82
38033;BME280;23841;48.524;1.342;2023-11-18T04:39:42;99701.88;;;12.73;64.74
38033;BME280;23841;48.524;1.342;2023-11-18T04:42:07;99698.38;;;12.72;64.78
38033;BME280;23841;48.524;1.342;2023-11-18T04:44:33;99701.06;;;12.71;64.86
38033;BME280;23841;48.524;1.342;2023-11-18T04:46:58;99701.13;;;12.68;64.93
38033;BME280;23841;48.524;1.342;2023-11-18T04:49:24;99701.13;;;12.68;64.97
38033;BME280;23841;48.524;1.342;2023-11-18T04:51:49;99706.44;;;12.68;64.97
38033;BME280;23841;48.524;1.342;2023-11-18T04:54:15;99698.44;;;12.68;64.99
38033;BME280;23841;48.524;1.342;2023-11-18T04:56:41;99692.25;;;12.67;64.98
38033;BME280;23841;48.524;1.342;2023-11-18T04:59:06;99689.66;;;12.64;64.97
38033;BME280;23841;48.524;1.342;2023-11-18T05:01:32;99694.97;;;12.66;64.91
38033;BME280;23841;48.524;1.342;2023-11-18T05:03:58;99702.97;;;12.66;65.05
38033;BME280;23841;48.524;1.342;2023-11-18T05:06:24;99685.28;;;12.61;65.07
38033;BME280;23841;48.524;1.342;2023-11-18T05:08:51;99677.28;;;12.61;65.07
38033;BME280;23841;48.524;1.342;2023-11-18T05:11:16;99675.50;;;12.62;65.14
38033;BME280;23841;48.524;1.342;2023-11-18T05:13:42;99668.44;;;12.61;65.26
38033;BME280;23841;48.524;1.342;2023-11-18T05:16:07;99679.09;;;12.61;65.39
38033;BME280;23841;48.524;1.342;2023-11-18T05:18:33;99664.91;;;12.59;65.36
38033;BME280;23841;48.524;1.342;2023-11-18T05:21:01;99662.22;;;12.60;65.34
38033;BME280;23841;48.524;1.342;2023-11-18T05:23:28;99659.59;;;12.59;65.42
38033;BME280;23841;48.524;1.342;2023-11-18T05:25:57;99646.28;;;12.57;65.37
38033;BME280;23841;48.524;1.342;2023-11-18T05:28:23;99647.19;;;12.56;65.57
38033;BME280;23841;48.524;1.342;2023-11-18T05:30:50;99647.19;;;12.56;65.64
38033;BME280;23841;48.524;1.342;2023-11-18T05:33:16;99652.53;;;12.56;65.42
38033;BME280;23841;48.524;1.342;2023-11-18T05:35:42;99645.44;;;12.57;65.49
38033;BME280;23841;48.524;1.342;2023-11-18T05:38:17;99641.91;;;12.55;65.44
38033;BME280;23841;48.524;1.342;2023-11-18T05:40:46;99639.28;;;12.53;65.69
38033;BME280;23841;48.524;1.342;2023-11-18T05:43:25;99625.09;;;12.53;65.76
38033;BME280;23841;48.524;1.342;2023-11-18T05:45:53;99629.53;;;12.52;65.74
38033;BME280;23841;48.524;1.342;2023-11-18T05:48:37;99623.38;;;12.50;65.79
38033;BME280;23841;48.524;1.342;2023-11-18T05:51:03;99628.72;;;12.50;65.59
38033;BME280;23841;48.524;1.342;2023-11-18T05:53:28;99626.03;;;12.50;65.84
38033;BME280;23841;48.524;1.342;2023-11-18T05:55:54;99610.09;;;12.49;65.91
38033;BME280;23841;48.524;1.342;2023-11-18T05:58:19;99603.88;;;12.48;65.74
38033;BME280;23841;48.524;1.342;2023-11-18T06:00:46;99607.47;;;12.47;65.84
38033;BME280;23841;48.524;1.342;2023-11-18T06:03:12;99605.72;;;12.46;66.09
38033;BME280;23841;48.524;1.342;2023-11-18T06:05:37;99599.53;;;12.44;66.08
38033;BME280;23841;48.524;1.342;2023-11-18T06:08:03;99604.03;;;12.42;66.29
38033;BME280;23841;48.524;1.342;2023-11-18T06:10:29;99612.97;;;12.39;66.37
38033;BME280;23841;48.524;1.342;2023-11-18T06:12:57;99603.16;;;12.41;66.23
38033;BME280;23841;48.524;1.342;2023-11-18T06:15:24;99610.28;;;12.41;66.19
38033;BME280;23841;48.524;1.342;2023-11-18T06:17:49;99605.88;;;12.38;66.32
38033;BME280;23841;48.524;1.342;2023-11-18T06:20:14;99606.75;;;12.40;66.35
38033;BME280;23841;48.524;1.342;2023-11-18T06:22:42;99607.69;;;12.38;66.50
38033;BME280;23841;48.524;1.342;2023-11-18T06:25:08;99595.28;;;12.37;66.58
38033;BME280;23841;48.524;1.342;2023-11-18T06:27:34;99597.97;;;12.35;66.58
38033;BME280;23841;48.524;1.342;2023-11-18T06:29:59;99574.94;;;12.33;66.87
38033;BME280;23841;48.524;1.342;2023-11-18T06:32:25;99580.28;;;12.33;66.98
38033;BME280;23841;48.524;1.342;2023-11-18T06:34:53;99579.41;;;12.32;66.98
38033;BME280;23841;48.524;1.342;2023-11-18T06:37:19;99579.38;;;12.34;66.63
38033;BME280;23841;48.524;1.342;2023-11-18T06:39:44;99564.28;;;12.33;66.83
38033;BME280;23841;48.524;1.342;2023-11-18T06:42:13;99577.63;;;12.33;66.87
38033;BME280;23841;48.524;1.342;2023-11-18T06:44:39;99571.47;;;12.31;66.81
38033;BME280;23841;48.524;1.342;2023-11-18T06:47:05;99579.41;;;12.32;66.88
38033;BME280;23841;48.524;1.342;2023-11-18T06:49:32;99576.75;;;12.32;66.87
38033;BME280;23841;48.524;1.342;2023-11-18T06:52:00;99573.19;;;12.32;66.76
38033;BME280;23841;48.524;1.342;2023-11-18T06:54:31;99563.38;;;12.34;66.66
38033;BME280;23841;48.524;1.342;2023-11-18T06:56:58;99574.03;;;12.34;66.61
38033;BME280;23841;48.524;1.342;2023-11-18T06:59:24;99560.72;;;12.34;66.42
38033;BME280;23841;48.524;1.342;2023-11-18T07:01:49;99569.56;;;12.34;66.49
38033;BME280;23841;48.524;1.342;2023-11-18T07:04:15;99561.63;;;12.33;66.52
38033;BME280;23841;48.524;1.342;2023-11-18T07:06:41;99574.03;;;12.34;66.73
38033;BME280;23841;48.524;1.342;2023-11-18T07:09:07;99571.16;;;12.41;66.52
38033;BME280;23841;48.524;1.342;2023-11-18T07:11:46;99572.84;;;12.47;66.69
38033;BME280;23841;48.524;1.342;2023-11-18T07:14:12;99570.22;;;12.44;67.20
38033;BME280;23841;48.524;1.342;2023-11-18T07:16:40;99567.66;;;12.41;67.21
38033;BME280;23841;48.524;1.342;2023-11-18T07:19:06;99568.56;;;12.40;67.09
38033;BME280;23841;48.524;1.342;2023-11-18T07:21:31;99571.25;;;12.38;66.94
38033;BME280;23841;48.524;1.342;2023-11-18T07:23:58;99571.25;;;12.38;66.88
38033;BME280;23841;48.524;1.342;2023-11-18T07:26:24;99568.63;;;12.37;66.88
38033;BME280;23841;48.524;1.342;2023-11-18T07:28:50;99566.00;;;12.35;66.94
38033;BME280;23841;48.524;1.342;2023-11-18T07:31:16;99581.09;;;12.36;66.84
38033;BME280;23841;48.524;1.342;2023-11-18T07:33:44;99573.97;;;12.37;66.86
38033;BME280;23841;48.524;1.342;2023-11-18T07:36:14;99585.53;;;12.36;66.71
38033;BME280;23841;48.524;1.342;2023-11-18T07:38:41;99585.56;;;12.34;66.88
38033;BME280;23841;48.524;1.342;2023-11-18T07:41:06;99585.56;;;12.34;66.83
38033;BME280;23841;48.524;1.342;2023-11-18T07:43:34;99596.22;;;12.34;66.86
38033;BME280;23841;48.524;1.342;2023-11-18T07:46:01;99591.78;;;12.35;66.86
38033;BME280;23841;48.524;1.342;2023-11-18T07:48:27;99591.78;;;12.35;66.92
38033;BME280;23841;48.524;1.342;2023-11-18T07:50:53;99590.91;;;12.34;67.00
38033;BME280;23841;48.524;1.342;2023-11-18T07:53:18;99590.03;;;12.34;66.90
38033;BME280;23841;48.524;1.342;2023-11-18T07:55:44;99590.03;;;12.34;66.90
38033;BME280;23841;48.524;1.342;2023-11-18T07:58:10;99593.59;;;12.33;66.91
38033;BME280;23841;48.524;1.342;2023-11-18T08:00:40;99590.91;;;12.34;67.01
38033;BME280;23841;48.524;1.342;2023-11-18T08:03:06;99583.84;;;12.33;66.83
38033;BME280;23841;48.524;1.342;2023-11-18T08:05:36;99597.16;;;12.33;67.01
38033;BME280;23841;48.524;1.342;2023-11-18T08:08:02;99585.59;;;12.33;66.98
38033;BME280;23841;48.524;1.342;2023-11-18T08:10:29;99582.94;;;12.33;67.00
38033;BME280;23841;48.524;1.342;2023-11-18T08:12:58;99577.63;;;12.33;67.05
38033;BME280;23841;48.524;1.342;2023-11-18T08:15:24;99579.47;;;12.31;67.06
38033;BME280;23841;48.524;1.342;2023-11-18T08:17:52;99578.50;;;12.33;67.17
38033;BME280;23841;48.524;1.342;2023-11-18T08:20:19;99582.94;;;12.33;67.02
38033;BME280;23841;48.524;1.342;2023-11-18T08:22:49;99582.03;;;12.34;67.23
38033;BME280;23841;48.524;1.342;2023-11-18T08:25:14;99576.78;;;12.31;67.27
38033;BME280;23841;48.524;1.342;2023-11-18T08:27:43;99568.81;;;12.31;67.13
38033;BME280;23841;48.524;1.342;2023-11-18T08:30:11;99570.53;;;12.32;67.22
38033;BME280;23841;48.524;1.342;2023-11-18T08:32:38;99559.91;;;12.30;67.24
38033;BME280;23841;48.524;1.342;2023-11-18T08:35:08;99562.53;;;12.32;67.25
38033;BME280;23841;48.524;1.342;2023-11-18T08:37:35;99563.44;;;12.32;67.27
38033;BME280;23841;48.524;1.342;2023-11-18T08:40:04;99570.53;;;12.32;67.22
38033;BME280;23841;48.524;1.342;2023-11-18T08:42:52;99566.09;;;12.32;67.42
38033;BME280;23841;48.524;1.342;2023-11-18T08:45:28;99570.53;;;12.32;67.23
38033;BME280;23841;48.524;1.342;2023-11-18T08:47:59;99572.28;;;12.33;67.35
38033;BME280;23841;48.524;1.342;2023-11-18T08:50:28;99571.47;;;12.31;67.38
38033;BME280;23841;48.524;1.342;2023-11-18T08:52:55;99560.81;;;12.31;67.38
38033;BME280;23841;48.524;1.342;2023-11-18T08:55:28;99556.34;;;12.31;67.33
38033;BME280;23841;48.524;1.342;2023-11-18T08:58:10;99553.72;;;12.29;67.56
38033;BME280;23841;48.524;1.342;2023-11-18T09:00:55;99550.16;;;12.31;67.60
38033;BME280;23841;48.524;1.342;2023-11-18T09:03:23;99562.56;;;12.30;67.63
38033;BME280;23841;48.524;1.342;2023-11-18T09:06:15;99551.06;;;12.29;67.75
38033;BME280;23841;48.524;1.342;2023-11-18T09:08:45;99539.47;;;12.32;67.68
38033;BME280;23841;48.524;1.342;2023-11-18T09:11:14;99543.88;;;12.32;67.71
38033;BME280;23841;48.524;1.342;2023-11-18T09:13:42;99539.50;;;12.31;67.71
38033;BME280;23841;48.524;1.342;2023-11-18T09:16:08;99546.56;;;12.32;67.87
38033;BME280;23841;48.524;1.342;2023-11-18T09:18:35;99536.84;;;12.31;67.89
38033;BME280;23841;48.524;1.342;2023-11-18T09:21:02;99543.03;;;12.31;67.90
38033;BME280;23841;48.524;1.342;2023-11-18T09:23:29;99540.31;;;12.33;67.66
38033;BME280;23841;48.524;1.342;2023-11-18T09:25:57;99542.97;;;12.33;67.74
38033;BME280;23841;48.524;1.342;2023-11-18T09:28:24;99538.56;;;12.33;67.61
38033;BME280;23841;48.524;1.342;2023-11-18T09:30:50;99536.75;;;12.34;67.55
38033;BME280;23841;48.524;1.342;2023-11-18T09:33:22;99543.84;;;12.35;67.54
38033;BME280;23841;48.524;1.342;2023-11-18T09:35:54;99540.22;;;12.36;67.58
38033;BME280;23841;48.524;1.342;2023-11-18T09:38:26;99534.91;;;12.36;67.51
38033;BME280;23841;48.524;1.342;2023-11-18T09:40:54;99524.28;;;12.34;67.59
38033;BME280;23841;48.524;1.342;2023-11-18T09:43:20;99520.72;;;12.35;67.42
38033;BME280;23841;48.524;1.342;2023-11-18T09:45:56;99517.19;;;12.35;67.64
38033;BME280;23841;48.524;1.342;2023-11-18T09:48:22;99510.97;;;12.34;67.64
38033;BME280;23841;48.524;1.342;2023-11-18T09:50:55;99508.28;;;12.36;67.81
38033;BME280;23841;48.524;1.342;2023-11-18T09:53:24;99509.16;;;12.36;67.72
38033;BME280;23841;48.524;1.342;2023-11-18T09:56:07;99506.53;;;12.35;67.58
38033;BME280;23841;48.524;1.342;2023-11-18T09:58:43;99509.16;;;12.36;67.36
38033;BME280;23841;48.524;1.342;2023-11-18T10:01:15;99510.03;;;12.37;67.30
38033;BME280;23841;48.524;1.342;2023-11-18T10:03:44;99504.75;;;12.35;67.54
38033;BME280;23841;48.524;1.342;2023-11-18T10:06:12;99504.69;;;12.37;67.29
38033;BME280;23841;48.524;1.342;2023-11-18T10:08:40;99486.94;;;12.36;67.23
38033;BME280;23841;48.524;1.342;2023-11-18T10:11:06;99495.84;;;12.36;67.57
38033;BME280;23841;48.524;1.342;2023-11-18T10:13:35;99485.22;;;12.35;67.85
38033;BME280;23841;48.524;1.342;2023-11-18T10:16:07;99485.22;;;12.35;68.04
38033;BME280;23841;48.524;1.342;2023-11-18T10:18:32;99476.28;;;12.36;67.61
38033;BME280;23841;48.524;1.342;2023-11-18T10:21:03;99461.22;;;12.36;67.74
38033;BME280;23841;48.524;1.342;2023-11-18T10:23:36;99449.66;;;12.36;67.91
38033;BME280;23841;48.524;1.342;2023-11-18T10:26:03;99442.59;;;12.35;68.33
38033;BME280;23841;48.524;1.342;2023-11-18T10:28:34;99436.44;;;12.33;68.45
38033;BME280;23841;48.524;1.342;2023-11-18T10:31:10;99419.63;;;12.31;68.59
38033;BME280;23841;48.524;1.342;2023-11-18T10:33:43;99411.59;;;12.32;68.57
38033;BME280;23841;48.524;1.342;2023-11-18T10:36:20;99422.16;;;12.35;68.63
38033;BME280;23841;48.524;1.342;2023-11-18T10:38:49;99425.72;;;12.34;68.46
38033;BME280;23841;48.524;1.342;2023-11-18T10:41:18;99437.28;;;12.35;68.73
38033;BME280;23841;48.524;1.342;2023-11-18T10:43:43;99434.63;;;12.35;68.79
38033;BME280;23841;48.524;1.342;2023-11-18T10:46:11;99450.59;;;12.35;68.81
38033;BME280;23841;48.524;1.342;2023-11-18T10:48:41;99450.59;;;12.35;68.60
38033;BME280;23841;48.524;1.342;2023-11-18T10:51:11;99451.41;;;12.37;67.94
38033;BME280;23841;48.524;1.342;2023-11-18T10:53:38;99453.19;;;12.38;67.91
38033;BME280;23841;48.524;1.342;2023-11-18T10:56:16;99459.31;;;12.40;68.16
38033;BME280;23841;48.524;1.342;2023-11-18T10:58:41;99460.25;;;12.39;68.11
38033;BME280;23841;48.524;1.342;2023-11-18T11:01:07;99449.59;;;12.39;68.36
38033;BME280;23841;48.524;1.342;2023-11-18T11:03:55;99453.94;;;12.41;68.35
38033;BME280;23841;48.524;1.342;2023-11-18T11:06:22;99438.06;;;12.38;67.90
38033;BME280;23841;48.524;1.342;2023-11-18T11:08:52;99438.91;;;12.40;68.32
38033;BME280;23841;48.524;1.342;2023-11-18T11:11:22;99430.91;;;12.40;68.11
38033;BME280;23841;48.524;1.342;2023-11-18T11:14:00;99431.78;;;12.41;68.24
38033;BME280;23841;48.524;1.342;2023-11-18T11:16:51;99424.66;;;12.41;68.29
38033;BME280;23841;48.524;1.342;2023-11-18T11:19:41;99431.78;;;12.41;68.20
38033;BME280;23841;48.524;1.342;2023-11-18T11:22:15;99430.91;;;12.40;68.15
38033;BME280;23841;48.524;1.342;2023-11-18T11:27:28;99421.13;;;12.41;68.36
38033;BME280;23841;48.524;1.342;2023-11-18T11:30:23;99422.88;;;12.42;68.30
38033;BME280;23841;48.524;1.342;2023-11-18T11:33:04;99421.97;;;12.41;68.62
38033;BME280;23841;48.524;1.342;2023-11-18T11:35:40;99417.53;;;12.42;69.00
38033;BME280;23841;48.524;1.342;2023-11-18T11:38:14;99413.06;;;12.42;68.95
38033;BME280;23841;48.524;1.342;2023-11-18T11:40:42;99423.72;;;12.42;68.70
38033;BME280;23841;48.524;1.342;2023-11-18T11:43:10;99419.31;;;12.43;68.92
38033;BME280;23841;48.524;1.342;2023-11-18T11:45:47;99408.66;;;12.43;68.72
38033;BME280;23841;48.524;1.342;2023-11-18T11:48:13;99392.66;;;12.43;68.40
38033;BME280;23841;48.524;1.342;2023-11-18T11:53:22;99384.66;;;12.43;68.26
38033;BME280;23841;48.524;1.342;2023-11-18T11:55:53;99380.19;;;12.43;68.31
38033;BME280;23841;48.524;1.342;2023-11-18T11:58:26;99390.00;;;12.43;68.51
38033;BME280;23841;48.524;1.342;2023-11-18T12:00:52;99387.34;;;12.43;69.38
38033;BME280;23841;48.524;1.342;2023-11-18T12:03:21;99396.13;;;12.45;69.30
38033;BME280;23841;48.524;1.342;2023-11-18T12:05:49;99401.47;;;12.45;69.54
38033;BME280;23841;48.524;1.342;2023-11-18T12:08:17;99398.81;;;12.45;69.36
38033;BME280;23841;48.524;1.342;2023-11-18T12:10:54;99397.00;;;12.45;69.47
38033;BME280;23841;48.524;1.342;2023-11-18T12:13:21;99391.72;;;12.44;69.21
38033;BME280;23841;48.524;1.342;2023-11-18T12:15:50;99406.75;;;12.46;69.48
38033;BME280;23841;48.524;1.342;2023-11-18T12:18:29;99413.88;;;12.46;69.48
38033;BME280;23841;48.524;1.342;2023-11-18T12:20:59;99419.13;;;12.49;69.68
38033;BME280;23841;48.524;1.342;2023-11-18T12:23:28;99423.53;;;12.50;69.91
38033;BME280;23841;48.524;1.342;2023-11-18T12:25:54;99409.31;;;12.51;69.87
38033;BME280;23841;48.524;1.342;2023-11-18T12:28:27;99394.13;;;12.53;69.74
38033;BME280;23841;48.524;1.342;2023-11-18T12:30:54;99395.00;;;12.54;69.69
38033;BME280;23841;48.524;1.342;2023-11-18T12:33:26;99395.84;;;12.56;69.92
38033;BME280;23841;48.524;1.342;2023-11-18T12:42:03;99367.31;;;12.59;69.74
38033;BME280;23841;48.524;1.342;2023-11-18T12:44:36;99364.63;;;12.59;69.91
38033;BME280;23841;48.524;1.342;2023-11-18T12:47:05;99377.94;;;12.61;69.88
38033;BME280;23841;48.524;1.342;2023-11-18T12:49:42;99360.16;;;12.61;69.97
38033;BME280;23841;48.524;1.342;2023-11-18T12:52:09;99366.34;;;12.62;70.12
38033;BME280;23841;48.524;1.342;2023-11-18T12:54:36;99363.63;;;12.63;70.04
38033;BME280;23841;48.524;1.342;2023-11-18T12:57:03;99367.19;;;12.64;70.00
38033;BME280;23841;48.524;1.342;2023-11-18T12:59:35;99365.38;;;12.64;70.06
38033;BME280;23841;48.524;1.342;2023-11-18T13:02:06;99352.91;;;12.67;70.24
38033;BME280;23841;48.524;1.342;2023-11-18T13:04:32;99345.81;;;12.66;70.08
38033;BME280;23841;48.524;1.342;2023-11-18T13:06:59;99352.00;;;12.66;70.15
38033;BME280;23841;48.524;1.342;2023-11-18T13:09:26;99348.44;;;12.67;70.16
38033;BME280;23841;48.524;1.342;2023-11-18T13:11:59;99356.34;;;12.70;70.19
38033;BME280;23841;48.524;1.342;2023-11-18T13:14:29;99348.34;;;12.70;70.17
38033;BME280;23841;48.524;1.342;2023-11-18T13:16:56;99346.56;;;12.71;70.20
38033;BME280;23841;48.524;1.342;2023-11-18T13:19:26;99336.91;;;12.67;70.21
38033;BME280;23841;48.524;1.342;2023-11-18T13:21:58;99343.91;;;12.71;70.10